Time;durP1;ratioP1;P1;durP2;ratioP2;P2;SDS_P1;SDS_P2;PMS_P1;PMS_P2;Temp;Humidity;BMP_temperature;BMP_pressure;BME280_temperature;BME280_humidity;BME280_pressure;Samples;Min_cycle;Max_cycle;Signal;HPM_P1;HPM_P2
2023/12/24 00:00:13;;;;;;;;;;;;;;;3.41;69.24;96804.06;4866210;29;20068;-75
2023/12/24 00:02:41;;;;;;;12.43;6.47;;;;;;;2.98;69.62;96744.41;4862752;29;19926;-72
2023/12/24 00:05:10;;;;;;;9.07;5.67;;;;;;;3.43;69.64;96804.00;4865071;29;20133;-75
2023/12/24 00:07:37;;;;;;;12.85;6.35;;;;;;;3.45;69.57;96803.09;4851238;29;20048;-73
2023/12/24 00:10:06;;;;;;;11.95;6.65;;;;;;;3.26;69.46;96777.03;4835831;29;20079;-75
2023/12/24 00:12:33;;;;;;;12.13;6.10;;;;;;;3.15;69.42;96755.97;4866666;29;20409;-74
2023/12/24 00:15:06;;;;;;;12.40;5.93;;;;;;;3.38;69.04;96800.75;4878179;29;20041;-74
2023/12/24 00:17:38;;;;;;;13.15;6.20;;;;;;;2.95;69.51;96733.38;4867309;29;20074;-74
2023/12/24 00:20:05;;;;;;;12.55;7.10;;;;;;;3.27;68.61;96778.72;4881220;29;20109;-74
2023/12/24 00:22:35;;;;;;;11.77;6.00;;;;;;;3.28;69.48;96772.72;4865161;29;20065;-74
2023/12/24 00:25:04;;;;;;;10.43;5.90;;;;;;;2.96;69.40;96724.78;4863234;29;20450;-73
2023/12/24 00:27:31;;;;;;;11.52;6.75;;;;;;;3.40;69.10;96791.25;4882080;29;20078;-75
2023/12/24 00:29:57;;;;;;;12.52;6.55;;;;;;;3.22;69.07;96754.88;4863787;29;20492;-73
2023/12/24 00:32:23;;;;;;;12.45;6.15;;;;;;;3.34;68.48;96778.56;4865930;29;20045;-73
2023/12/24 00:34:49;;;;;;;11.95;5.95;;;;;;;3.38;69.08;96788.72;4879143;29;20048;-72
2023/12/24 00:37:18;;;;;;;11.13;5.35;;;;;;;3.23;68.54;96771.16;4882606;29;20052;-73
2023/12/24 00:39:45;;;;;;;9.18;4.85;;;;;;;3.22;69.25;96772.88;4867083;29;20049;-74
2023/12/24 00:42:13;;;;;;;12.23;6.20;;;;;;;2.99;68.87;96734.97;4881394;29;20116;-73
2023/12/24 00:44:43;;;;;;;9.85;5.35;;;;;;;3.03;68.56;96740.88;4849642;29;20052;-73
2023/12/24 00:47:12;;;;;;;9.98;5.70;;;;;;;2.89;68.44;96705.28;4852858;29;20047;-73
2023/12/24 00:49:47;;;;;;;10.57;5.40;;;;;;;2.86;68.41;96693.38;4853408;29;20079;-73
2023/12/24 00:52:15;;;;;;;12.30;5.15;;;;;;;3.13;68.10;96739.75;4878402;29;20041;-73
2023/12/24 00:54:41;;;;;;;10.90;5.22;;;;;;;3.30;67.88;96776.09;4881312;29;20041;-73
2023/12/24 00:57:11;;;;;;;9.80;5.63;;;;;;;3.25;68.77;96780.50;4853164;29;20045;-73
2023/12/24 00:59:40;;;;;;;9.80;5.22;;;;;;;3.21;68.03;96772.94;4869527;29;20137;-76
2023/12/24 01:02:06;;;;;;;8.90;4.68;;;;;;;3.21;67.79;96770.34;4881632;29;20041;-71
2023/12/24 01:04:32;;;;;;;9.70;4.60;;;;;;;2.98;67.57;96743.56;4846084;29;20052;-74
2023/12/24 01:06:59;;;;;;;10.32;5.15;;;;;;;2.66;67.40;96701.59;4884892;29;20045;-79
2023/12/24 01:09:26;;;;;;;6.75;4.75;;;;;;;3.05;67.34;96755.38;4865870;29;20063;-73
2023/12/24 01:11:53;;;;;;;7.70;4.97;;;;;;;2.86;67.64;96721.63;4864069;29;20508;-72
2023/12/24 01:14:28;;;;;;;7.93;4.28;;;;;;;2.54;66.88;96677.09;4864578;29;20045;-72
2023/12/24 01:16:59;;;;;;;10.55;4.82;;;;;;;2.97;67.24;96737.59;4862459;29;20049;-74
2023/12/24 01:19:27;;;;;;;9.43;5.28;;;;;;;2.62;66.70;96688.00;4876039;29;20048;-74
2023/12/24 01:21:56;;;;;;;8.40;4.72;;;;;;;2.62;67.04;96693.16;4879628;29;20044;-74
2023/12/24 01:24:33;;;;;;;;;;;;;;;;;;;;;
2023/12/24 01:27:10;;;;;;;9.10;5.22;;;;;;;2.91;67.14;96748.03;4877413;29;20187;-70
2023/12/24 01:29:45;;;;;;;7.93;5.15;;;;;;;2.80;66.42;96714.06;4878389;29;20041;-72
2023/12/24 01:32:14;;;;;;;8.77;5.20;;;;;;;2.46;66.48;96646.50;4861926;29;20050;-74
2023/12/24 01:34:43;;;;;;;11.35;5.60;;;;;;;2.95;66.74;96730.81;4877154;29;20049;-71
2023/12/24 01:37:20;;;;;;;11.15;5.72;;;;;;;2.95;66.45;96735.94;4878605;29;20060;-78
2023/12/24 01:39:50;;;;;;;8.40;4.97;;;;;;;3.01;66.78;96741.75;4868763;29;20659;-79
2023/12/24 01:42:22;;;;;;;10.32;6.00;;;;;;;2.39;66.43;96657.84;4865194;29;20045;-76
2023/12/24 01:45:18;;;;;;;10.43;5.07;;;;;;;2.11;66.17;96618.31;4880484;29;20156;-73
2023/12/24 01:47:44;;;;;;;10.65;6.03;;;;;;;2.80;66.27;96730.34;4878789;29;20072;-73
2023/12/24 01:50:16;;;;;;;11.13;6.03;;;;;;;2.90;66.32;96736.06;4865140;29;20102;-78
2023/12/24 01:52:49;;;;;;;10.63;5.40;;;;;;;2.94;66.45;96755.66;4876104;29;20543;-72
2023/12/24 01:55:20;;;;;;;10.48;5.80;;;;;;;2.89;66.60;96748.94;4876492;29;20092;-73
2023/12/24 01:57:48;;;;;;;9.43;6.07;;;;;;;2.67;65.99;96723.81;4860207;29;20068;-72
2023/12/24 02:00:16;;;;;;;8.52;5.13;;;;;;;2.65;65.74;96721.31;4875973;29;20049;-70
2023/12/24 02:02:48;;;;;;;9.40;5.13;;;;;;;2.79;66.07;96759.47;4855282;29;20420;-74
2023/12/24 02:05:15;;;;;;;;;;;;;;;2.80;65.57;96756.03;4836994;29;20072;-73
2023/12/24 02:07:41;;;;;;;8.40;4.68;;;;;;;2.21;65.50;96662.53;4860503;29;20035;-73
2023/12/24 02:10:13;;;;;;;10.35;5.82;;;;;;;2.61;66.15;96722.28;4880511;29;20041;-75
2023/12/24 02:12:43;;;;;;;9.38;5.32;;;;;;;2.78;65.58;96755.22;4861489;29;20045;-72
2023/12/24 02:15:10;;;;;;;10.68;5.90;;;;;;;2.52;66.21;96719.97;4869352;29;20124;-79
2023/12/24 02:17:43;;;;;;;10.68;6.22;;;;;;;2.64;66.14;96737.59;4878876;29;20049;-76
2023/12/24 02:20:15;;;;;;;10.02;5.60;;;;;;;2.60;65.80;96723.16;4845343;29;20047;-75
2023/12/24 02:22:41;;;;;;;13.50;6.05;;;;;;;2.60;65.79;96723.16;4877208;29;20052;-75
2023/12/24 02:25:09;;;;;;;10.50;6.15;;;;;;;2.80;65.72;96762.88;4851950;29;20045;-75
2023/12/24 02:28:02;;;;;;;10.82;6.10;;;;;;;2.75;65.51;96767.31;4860834;29;20044;-76
2023/12/24 02:30:35;;;;;;;12.82;6.85;;;;;;;2.43;65.21;96733.00;4863633;29;20381;-77
2023/12/24 02:33:16;;;;;;;13.93;7.57;;;;;;;2.18;65.42;96713.94;4865644;29;20033;-76
2023/12/24 02:35:43;;;;;;;15.18;8.30;;;;;;;2.52;65.67;96771.31;4878773;29;20044;-77
2023/12/24 02:38:18;;;;;;;17.65;9.05;;;;;;;2.49;65.97;96761.94;4866364;29;20049;-79
2023/12/24 02:40:52;;;;;;;17.83;9.43;;;;;;;2.15;66.10;96701.19;4868772;29;20051;-77
2023/12/24 02:43:19;;;;;;;17.27;9.38;;;;;;;2.50;65.50;96762.78;4881490;29;20048;-78
2023/12/24 02:45:50;;;;;;;20.55;9.98;;;;;;;2.43;65.72;96756.13;4849362;29;20042;-79
2023/12/24 02:48:19;;;;;;;19.25;10.05;;;;;;;1.89;66.15;96676.16;4862344;29;20044;-76
2023/12/24 02:50:57;;;;;;;16.77;8.88;;;;;;;2.32;66.08;96752.06;4857122;29;20128;-77
2023/12/24 02:53:23;;;;;;;15.40;8.52;;;;;;;2.28;65.27;96749.63;4880991;29;20053;-78
2023/12/24 02:56:14;;;;;;;13.15;8.07;;;;;;;2.03;65.40;96733.13;4880354;29;20078;-81
2023/12/24 02:58:43;;;;;;;13.98;8.52;;;;;;;2.20;65.92;96763.50;4862050;29;20096;-75
2023/12/24 03:01:19;;;;;;;14.88;8.63;;;;;;;2.20;66.37;96762.66;4865909;29;20052;-76
2023/12/24 03:03:50;;;;;;;15.32;7.78;;;;;;;2.11;66.47;96764.53;4856697;29;20053;-75
2023/12/24 03:06:17;;;;;;;15.43;7.72;;;;;;;1.75;66.60;96727.78;4844668;29;20049;-76
2023/12/24 03:08:46;;;;;;;13.85;7.55;;;;;;;1.46;65.93;96673.72;4828758;29;20120;-76
2023/12/24 03:11:15;;;;;;;11.05;7.20;;;;;;;1.91;66.47;96749.63;4843998;29;20046;-76
2023/12/24 03:13:43;;;;;;;15.05;8.18;;;;;;;1.81;66.32;96730.19;4837230;29;20052;-76
2023/12/24 03:16:20;;;;;;;12.85;7.25;;;;;;;2.08;66.31;96779.19;4833154;29;20112;-76
2023/12/24 03:18:48;;;;;;;10.27;6.75;;;;;;;1.39;66.62;96686.69;4847442;29;20037;-75
2023/12/24 03:21:35;;;;;;;13.55;6.88;;;;;;;1.90;66.35;96776.16;4843507;29;20070;-76
2023/12/24 03:24:01;;;;;;;17.60;7.45;;;;;;;1.58;66.53;96751.22;4845533;29;20033;-75
2023/12/24 03:26:39;;;;;;;13.27;7.13;;;;;;;1.81;67.11;96778.91;4855777;29;20106;-76
2023/12/24 03:29:09;;;;;;;14.80;6.97;;;;;;;1.87;66.81;96794.16;4859521;29;20102;-76
2023/12/24 03:31:38;;;;;;;13.10;6.95;;;;;;;1.48;66.63;96730.91;4817737;29;20041;-77
2023/12/24 03:34:07;;;;;;;13.43;6.75;;;;;;;1.26;66.43;96712.59;4859290;29;20042;-76
2023/12/24 03:36:34;;;;;;;14.23;6.75;;;;;;;1.64;67.11;96779.31;4861488;29;20053;-76
2023/12/24 03:39:02;;;;;;;13.98;6.82;;;;;;;1.49;66.66;96772.78;4817449;29;20113;-76
2023/12/24 03:41:34;;;;;;;12.18;7.07;;;;;;;1.28;66.59;96762.09;4846916;29;20060;-75
2023/12/24 03:44:03;;;;;;;14.10;6.40;;;;;;;1.56;67.23;96787.13;4860285;29;20069;-76
2023/12/24 03:46:29;;;;;;;15.35;7.15;;;;;;;1.65;67.40;96806.63;4847853;29;20052;-76
2023/12/24 03:49:07;;;;;;;14.20;7.38;;;;;;;1.22;67.20;96738.28;4841569;29;20048;-78
2023/12/24 03:51:33;;;;;;;13.93;6.82;;;;;;;1.45;67.61;96787.34;4836463;29;20046;-79
2023/12/24 03:54:02;;;;;;;13.57;6.97;;;;;;;1.41;67.27;96790.88;4850130;29;20054;-77
2023/12/24 03:56:29;;;;;;;14.68;7.22;;;;;;;1.53;67.23;96810.28;4851985;29;20050;-76
2023/12/24 03:58:59;;;;;;;12.18;6.20;;;;;;;1.02;67.42;96726.72;4861744;29;20049;-76
2023/12/24 04:01:31;;;;;;;15.07;7.05;;;;;;;1.32;67.20;96783.34;4851381;29;20041;-73
2023/12/24 04:04:11;;;;;;;11.68;6.75;;;;;;;0.99;67.82;96729.38;4857424;29;20061;-74
2023/12/24 04:06:40;;;;;;;12.95;6.55;;;;;;;0.88;67.76;96709.94;4852821;29;20048;-76
2023/12/24 04:09:09;;;;;;;12.05;6.80;;;;;;;1.41;67.66;96800.25;4865995;29;20052;-75
2023/12/24 04:11:35;;;;;;;11.82;6.72;;;;;;;0.57;67.56;96663.59;4864734;29;20041;-74
2023/12/24 04:14:04;;;;;;;13.25;6.55;;;;;;;1.49;67.47;96817.16;4849603;29;20045;-74
2023/12/24 04:16:31;;;;;;;12.52;6.65;;;;;;;1.36;67.58;96797.81;4877558;29;20114;-75
2023/12/24 04:19:02;;;;;;;12.95;6.43;;;;;;;1.40;67.87;96803.69;4868114;29;20070;-81
2023/12/24 04:21:37;;;;;;;13.65;7.15;;;;;;;1.06;67.74;96766.78;4870575;29;20068;-82
2023/12/24 04:24:07;;;;;;;13.25;6.95;;;;;;;1.48;67.64;96817.22;4869264;29;20038;-80
2023/12/24 04:29:23;;;;;;;17.30;7.10;;;;;;;1.57;68.08;96821.31;4850403;29;20060;-78
2023/12/24 04:31:54;;;;;;;15.90;7.53;;;;;;;1.44;68.18;96810.47;4880882;29;20045;-78
2023/12/24 04:34:21;;;;;;;15.45;7.95;;;;;;;1.39;67.71;96805.44;4876828;29;20045;-73
2023/12/24 04:36:51;;;;;;;16.52;8.43;;;;;;;1.43;67.92;96812.19;4862499;29;20061;-75
2023/12/24 04:39:17;;;;;;;15.15;7.60;;;;;;;1.40;67.95;96809.69;4877791;29;20529;-76
2023/12/24 04:41:46;;;;;;;18.48;8.65;;;;;;;1.33;68.39;96810.66;4851313;29;20041;-76
2023/12/24 04:44:15;;;;;;;17.65;8.25;;;;;;;1.52;67.72;96834.22;4851996;29;20082;-75
2023/12/24 04:46:43;;;;;;;16.95;7.50;;;;;;;1.32;68.25;96802.16;4879027;29;20373;-76
2023/12/24 04:49:09;;;;;;;15.13;7.63;;;;;;;1.33;68.23;96813.22;4856282;29;20055;-75
2023/12/24 04:51:41;;;;;;;14.73;8.13;;;;;;;1.54;68.48;96834.19;4851566;29;20052;-74
2023/12/24 04:54:12;;;;;;;17.42;8.45;;;;;;;1.13;67.93;96767.50;4865684;29;20041;-76
2023/12/24 04:56:41;;;;;;;12.65;7.35;;;;;;;1.00;68.21;96748.97;4861578;29;20045;-78
2023/12/24 04:59:10;;;;;;;16.13;7.97;;;;;;;1.43;68.48;96848.06;4851644;29;20530;-75
2023/12/24 05:01:36;;;;;;;20.90;8.30;;;;;;;1.32;68.33;96829.47;4881621;29;20160;-76
2023/12/24 05:04:03;;;;;;;19.15;8.68;;;;;;;1.23;68.60;96817.69;4882056;29;20057;-81
2023/12/24 05:06:31;;;;;;;16.65;8.60;;;;;;;1.31;68.50;96826.09;4867860;29;20055;-80
2023/12/24 05:09:04;;;;;;;16.15;9.13;;;;;;;1.44;68.22;96851.47;4849674;29;20041;-74
2023/12/24 05:11:39;;;;;;;21.63;8.93;;;;;;;1.39;68.59;96849.00;4876687;29;20053;-74
2023/12/24 05:14:06;;;;;;;20.67;9.50;;;;;;;1.31;68.63;96845.72;4878282;29;20084;-74
2023/12/24 05:16:35;;;;;;;17.00;8.20;;;;;;;0.86;68.81;96785.94;4862055;29;20084;-74
2023/12/24 05:19:14;;;;;;;18.83;8.43;;;;;;;1.22;68.64;96833.06;4856921;29;20040;-75
2023/12/24 05:21:40;;;;;;;20.50;9.20;;;;;;;1.41;68.73;96861.75;4866862;29;20167;-74
2023/12/24 05:24:09;;;;;;;16.63;8.70;;;;;;;1.24;68.81;96839.88;4863644;29;20041;-75
2023/12/24 05:26:38;;;;;;;18.80;9.00;;;;;;;1.43;68.95;96865.16;4849805;29;20136;-74
2023/12/24 05:29:23;;;;;;;15.43;7.13;;;;;;;1.42;68.61;96866.88;4878776;29;20568;-73
2023/12/24 05:31:57;;;;;;;14.30;6.88;;;;;;;1.37;68.83;96876.38;4865266;29;20041;-73
2023/12/24 05:34:26;;;;;;;14.07;7.30;;;;;;;1.26;68.82;96861.19;4862899;29;20477;-74
2023/12/24 05:37:03;;;;;;;17.90;7.85;;;;;;;1.09;68.80;96845.28;4875832;29;20139;-74
2023/12/24 05:39:33;;;;;;;14.50;7.75;;;;;;;0.95;68.88;96822.50;4877910;29;21431;-72
2023/12/24 05:41:58;;;;;;;11.73;6.93;;;;;;;0.87;68.94;96809.81;4878921;29;20449;-73
2023/12/24 05:44:27;;;;;;;17.63;8.23;;;;;;;1.26;68.63;96868.00;4849372;29;20041;-73
2023/12/24 05:46:53;;;;;;;10.98;6.35;;;;;;;1.17;68.76;96862.22;4879061;29;20053;-73
2023/12/24 05:49:24;;;;;;;13.55;7.00;;;;;;;1.29;68.87;96901.28;4861404;29;20048;-73
2023/12/24 05:51:50;;;;;;;14.18;7.13;;;;;;;0.52;69.28;96790.78;4861644;29;20110;-73
2023/12/24 05:54:22;;;;;;;12.20;6.63;;;;;;;1.18;69.28;96904.88;4878661;29;20041;-74
2023/12/24 05:56:48;;;;;;;11.43;6.25;;;;;;;1.01;69.17;96883.81;4860942;29;20187;-78
2023/12/24 05:59:17;;;;;;;11.77;6.00;;;;;;;1.08;69.47;96903.34;4862147;29;20045;-76
2023/12/24 06:01:46;;;;;;;13.98;6.30;;;;;;;1.15;69.93;96911.75;4851874;29;20499;-75
2023/12/24 06:04:14;;;;;;;14.13;6.53;;;;;;;1.14;69.40;96918.63;4866585;29;20055;-74
2023/12/24 06:06:41;;;;;;;13.48;6.90;;;;;;;0.87;69.61;96879.78;4880220;29;20051;-75
2023/12/24 06:09:19;;;;;;;14.07;6.45;;;;;;;0.85;69.79;96873.84;4864681;29;20037;-75
2023/12/24 06:12:11;;;;;;;12.73;6.10;;;;;;;1.10;69.69;96928.94;4854970;29;20456;-73
2023/12/24 06:14:40;;;;;;;11.05;6.30;;;;;;;0.96;69.98;96917.19;4852641;29;20048;-74
2023/12/24 06:17:17;;;;;;;13.50;6.35;;;;;;;0.92;70.32;96904.47;4865948;29;20041;-75
2023/12/24 06:19:47;;;;;;;11.20;6.10;;;;;;;0.98;70.31;96915.47;4878423;29;20100;-73
2023/12/24 06:22:17;;;;;;;13.27;6.75;;;;;;;1.10;70.64;96923.81;4862275;29;20056;-74
2023/12/24 06:24:43;;;;;;;9.90;5.82;;;;;;;0.74;70.47;96880.88;4881676;29;20037;-73
2023/12/24 06:27:13;;;;;;;13.43;6.28;;;;;;;0.93;70.41;96916.41;4860172;29;20056;-74
2023/12/24 06:29:48;;;;;;;15.02;6.07;;;;;;;0.84;70.69;96905.44;4861340;29;20044;-76
2023/12/24 06:32:23;;;;;;;10.55;5.78;;;;;;;0.26;70.75;96817.63;4879891;29;20059;-74
2023/12/24 06:34:52;;;;;;;10.95;6.32;;;;;;;0.99;70.47;96931.69;4852965;29;20037;-75
2023/12/24 06:37:18;;;;;;;11.82;5.65;;;;;;;0.53;70.63;96872.66;4848183;29;20128;-72
2023/12/24 06:39:45;;;;;;;11.07;5.38;;;;;;;0.95;70.85;96928.31;4879022;29;20047;-72
2023/12/24 06:42:12;;;;;;;9.98;5.35;;;;;;;0.83;71.02;96908.88;4850435;29;20509;-70
2023/12/24 06:44:41;;;;;;;11.43;5.90;;;;;;;0.91;70.44;96939.47;4863819;29;20109;-72
2023/12/24 06:47:10;;;;;;;12.40;5.80;;;;;;;0.96;71.45;96929.16;4850880;29;20408;-73
2023/12/24 06:49:44;;;;;;;10.32;4.93;;;;;;;0.41;70.87;96839.56;4846600;29;20041;-71
2023/12/24 06:52:13;;;;;;;10.45;4.90;;;;;;;1.10;71.01;96955.38;4863227;29;20136;-72
2023/12/24 06:54:43;;;;;;;9.45;5.60;;;;;;;0.80;71.22;96910.66;4866891;29;20049;-73
2023/12/24 06:57:18;;;;;;;11.25;5.60;;;;;;;0.86;71.28;96918.22;4878882;29;20136;-72
2023/12/24 06:59:44;;;;;;;9.45;5.30;;;;;;;1.16;71.31;96954.44;4864933;29;20052;-72
2023/12/24 07:02:10;;;;;;;10.88;5.72;;;;;;;0.96;71.33;96918.94;4867457;29;20047;-72
2023/12/24 07:04:36;;;;;;;11.77;5.70;;;;;;;1.15;71.18;96950.19;4877307;29;20057;-73
2023/12/24 07:07:02;;;;;;;9.60;4.68;;;;;;;1.05;71.46;96934.13;4880764;29;20045;-72
2023/12/24 07:09:28;;;;;;;10.15;5.43;;;;;;;0.87;71.43;96907.94;4878947;29;20116;-71
2023/12/24 07:11:55;;;;;;;10.73;5.50;;;;;;;1.10;71.33;96945.16;4865990;29;20039;-72
2023/12/24 07:14:21;;;;;;;11.50;5.40;;;;;;;0.71;71.24;96888.59;4880808;29;20048;-73
2023/12/24 07:16:56;;;;;;;10.10;5.13;;;;;;;1.11;71.15;96949.41;4876466;29;20556;-71
2023/12/24 07:19:22;;;;;;;11.82;5.40;;;;;;;0.82;71.44;96906.34;4878437;29;20060;-74
2023/12/24 07:21:52;;;;;;;12.00;5.90;;;;;;;1.32;71.11;96985.78;4862639;29;20080;-71
2023/12/24 07:24:18;;;;;;;12.38;6.03;;;;;;;1.32;71.32;96980.66;4882640;29;20047;-69
2023/12/24 07:26:59;;;;;;;11.77;6.38;;;;;;;1.18;71.62;96951.00;4873000;29;20457;-72
2023/12/24 07:29:25;;;;;;;11.90;6.65;;;;;;;1.14;71.19;96951.91;4872180;29;20052;-71
2023/12/24 07:31:54;;;;;;;12.55;5.90;;;;;;;1.22;71.77;96963.72;4856590;29;20512;-71
2023/12/24 07:34:34;;;;;;;10.10;5.70;;;;;;;0.89;71.95;96915.59;4858237;29;20057;-71
2023/12/24 07:37:02;;;;;;;12.15;5.70;;;;;;;1.29;71.55;96975.56;4888568;29;20408;-70
2023/12/24 07:39:33;;;;;;;11.63;5.78;;;;;;;1.39;71.25;96986.50;4873193;29;20051;-72
2023/12/24 07:41:59;;;;;;;10.73;5.35;;;;;;;1.15;71.50;96951.03;4855586;29;20037;-73
2023/12/24 07:44:25;;;;;;;10.25;5.78;;;;;;;1.34;71.10;96984.03;4871059;29;20080;-72
2023/12/24 07:46:57;;;;;;;11.80;5.45;;;;;;;1.28;71.10;96963.63;4871286;29;20045;-74
2023/12/24 07:49:26;;;;;;;8.98;4.85;;;;;;;1.33;71.05;96979.78;4870786;29;20079;-76
2023/12/24 07:51:53;;;;;;;12.02;5.60;;;;;;;1.25;71.07;96969.66;4885968;29;20112;-72
2023/12/24 07:54:19;;;;;;;9.38;5.13;;;;;;;0.97;71.24;96915.50;4883417;29;20045;-75
2023/12/24 07:56:48;;;;;;;9.85;5.30;;;;;;;1.24;71.08;96962.84;4857388;29;20124;-74
2023/12/24 07:59:14;;;;;;;8.35;4.45;;;;;;;0.96;70.75;96911.25;4886229;29;20049;-73
2023/12/24 08:01:40;;;;;;;11.05;5.55;;;;;;;1.36;71.37;96956.66;4886996;29;20080;-73
2023/12/24 08:04:11;;;;;;;9.60;5.35;;;;;;;1.38;70.89;96949.81;4856941;29;20057;-74
2023/12/24 08:06:39;;;;;;;9.75;4.82;;;;;;;1.42;70.76;96951.44;4885401;29;20136;-75
2023/12/24 08:09:08;;;;;;;9.90;5.60;;;;;;;1.66;70.84;96974.91;4886968;29;20053;-73
2023/12/24 08:11:34;;;;;;;9.48;5.40;;;;;;;1.68;70.85;96985.16;4855534;29;20052;-73
2023/12/24 08:14:16;;;;;;;;;;;;;;;;;;;;;
2023/12/24 08:16:45;;;;;;;8.80;4.50;;;;;;;1.09;69.85;96881.16;4868425;29;20045;-71
2023/12/24 08:19:17;;;;;;;10.55;5.65;;;;;;;1.48;70.55;96958.19;4872745;29;20073;-77
2023/12/24 08:21:52;;;;;;;10.02;4.95;;;;;;;1.46;70.46;96957.34;4870357;29;20073;-71
2023/12/24 08:24:18;;;;;;;9.48;5.03;;;;;;;1.25;70.39;96927.81;4871580;29;20068;-72
2023/12/24 08:26:49;;;;;;;8.50;4.40;;;;;;;1.18;70.41;96907.44;4887297;29;20040;-74
2023/12/24 08:29:20;;;;;;;7.47;3.95;;;;;;;0.98;70.12;96873.66;4865014;29;20056;-71
2023/12/24 08:31:49;;;;;;;7.22;4.25;;;;;;;0.25;70.05;96755.41;4855247;29;20079;-72
2023/12/24 08:34:22;;;;;;;7.40;4.05;;;;;;;1.14;69.87;96895.56;4856691;29;20412;-73
2023/12/24 08:37:09;;;;;;;10.82;4.45;;;;;;;1.58;70.50;96956.28;4884915;29;20040;-71
2023/12/24 08:39:35;;;;;;;7.50;3.88;;;;;;;1.78;69.88;96978.97;4856208;29;20045;-73
2023/12/24 08:42:03;;;;;;;6.25;4.07;;;;;;;1.34;69.75;96912.28;4871132;29;20049;-71
2023/12/24 08:44:43;;;;;;;7.15;3.95;;;;;;;1.83;69.43;96989.16;4869681;29;20051;-72
2023/12/24 08:47:20;;;;;;;7.60;4.00;;;;;;;1.85;69.63;96997.69;4869028;29;20457;-70
2023/12/24 08:49:52;;;;;;;5.90;3.72;;;;;;;1.45;69.51;96920.63;4871941;29;20111;-71
2023/12/24 08:52:18;;;;;;;8.93;3.88;;;;;;;1.77;69.40;96972.16;4856387;29;20040;-70
2023/12/24 08:54:47;;;;;;;7.10;4.07;;;;;;;2.09;69.33;97004.91;4885029;29;20041;-74
2023/12/24 08:57:24;;;;;;;6.03;3.88;;;;;;;1.75;69.45;96926.03;4882534;29;20049;-73
2023/12/24 08:59:50;;;;;;;7.03;3.45;;;;;;;2.38;69.22;97011.16;4884072;29;20995;-71
2023/12/24 09:02:17;;;;;;;5.25;3.22;;;;;;;2.44;68.69;96996.50;4852076;29;20408;-70
2023/12/24 09:04:47;;;;;;;8.25;4.28;;;;;;;2.32;68.84;96948.84;4870430;29;20063;-72
2023/12/24 09:07:15;;;;;;;7.75;4.00;;;;;;;2.48;68.84;96939.94;4850244;29;20045;-72
2023/12/24 09:09:48;;;;;;;9.75;4.10;;;;;;;2.97;68.50;96983.38;4871385;29;20532;-77
2023/12/24 09:12:33;;;;;;;7.20;4.10;;;;;;;2.50;67.78;96891.16;4851717;29;20037;-76
2023/12/24 09:15:01;;;;;;;7.38;4.00;;;;;;;2.94;67.42;96962.88;4870909;29;20017;-76
2023/12/24 09:17:47;;;;;;;7.22;3.83;;;;;;;3.30;67.47;96991.16;4881087;29;20040;-74
2023/12/24 09:20:16;;;;;;;;;;;;;;;3.53;67.44;97026.56;4882683;29;20109;-75
2023/12/24 09:22:43;;;;;;;6.97;3.80;;;;;;;3.28;67.26;96983.47;4886758;29;20038;-74
2023/12/24 09:25:10;;;;;;;5.55;3.20;;;;;;;3.38;67.10;96957.56;4859039;29;20076;-74
2023/12/24 09:27:37;;;;;;;6.72;4.00;;;;;;;3.61;66.21;96986.09;4866483;29;20136;-72
2023/12/24 09:30:07;;;;;;;7.20;4.50;;;;;;;3.46;65.78;96965.91;4878490;29;20097;-73
2023/12/24 09:32:36;;;;;;;6.93;4.70;;;;;;;3.51;65.55;96974.34;4879784;29;20065;-74
2023/12/24 09:35:03;;;;;;;7.50;4.57;;;;;;;3.74;64.65;97038.06;4850569;29;20080;-71
2023/12/24 09:37:33;;;;;;;7.90;4.38;;;;;;;3.49;65.03;97013.84;4850725;29;20052;-72
2023/12/24 09:39:59;;;;;;;6.60;4.05;;;;;;;3.26;64.24;97012.69;4883347;29;20073;-75
2023/12/24 09:42:27;;;;;;;7.13;4.15;;;;;;;2.61;64.65;96932.81;4880637;29;20051;-72
2023/12/24 09:44:52;;;;;;;6.97;3.85;;;;;;;3.12;64.66;97028.41;4878867;29;20037;-72
2023/12/24 09:47:25;;;;;;;5.97;3.75;;;;;;;3.19;64.25;97050.53;4881052;29;20101;-72
2023/12/24 09:50:07;;;;;;;6.50;3.88;;;;;;;2.99;64.01;97033.81;4880042;29;20060;-71
2023/12/24 09:52:48;;;;;;;7.05;4.10;;;;;;;3.04;64.24;97056.88;4878971;29;20045;-73
2023/12/24 09:55:17;;;;;;;7.72;4.85;;;;;;;3.09;64.54;97054.19;4882144;29;20129;-72
2023/12/24 09:57:54;;;;;;;8.43;4.00;;;;;;;3.11;64.22;97058.38;4868352;29;20083;-73
2023/12/24 10:00:23;;;;;;;7.20;4.32;;;;;;;2.95;63.97;97042.50;4881334;29;20535;-71
2023/12/24 10:02:52;;;;;;;8.30;4.53;;;;;;;3.01;64.14;97046.66;4881733;29;20474;-74
2023/12/24 10:05:20;;;;;;;10.30;5.45;;;;;;;3.10;64.36;97055.88;4848771;29;20053;-73
2023/12/24 10:08:02;;;;;;;10.07;5.03;;;;;;;2.90;64.14;97030.63;4880691;29;20048;-73
2023/12/24 10:10:34;;;;;;;10.80;5.05;;;;;;;3.00;63.98;97044.97;4867896;29;20231;-76
2023/12/24 10:13:06;;;;;;;11.35;5.50;;;;;;;2.70;63.83;96990.81;4883308;29;20067;-72
2023/12/24 10:15:39;;;;;;;;;;;;;;;3.33;63.95;97070.75;4882939;29;20104;-72
2023/12/24 10:18:18;;;;;;;8.55;4.80;;;;;;;3.36;63.90;97064.72;4880205;29;19920;-73
2023/12/24 10:20:47;;;;;;;8.90;4.30;;;;;;;2.95;63.42;96993.69;4858051;29;20152;-72
2023/12/24 10:23:34;;;;;;;6.30;3.83;;;;;;;2.79;63.73;96988.06;4867381;29;20045;-73
2023/12/24 10:26:05;;;;;;;7.88;3.90;;;;;;;3.34;63.24;97089.59;4881499;29;20131;-71
2023/12/24 10:28:49;;;;;;;6.32;3.20;;;;;;;2.86;62.96;97032.41;4877482;29;20048;-70
2023/12/24 10:31:53;;;;;;;5.72;3.70;;;;;;;3.07;63.19;97072.22;4878389;29;20033;-73
2023/12/24 10:34:23;;;;;;;6.30;3.92;;;;;;;3.08;63.05;97088.47;4866292;29;20572;-72
2023/12/24 10:36:50;;;;;;;5.85;3.40;;;;;;;2.78;62.89;97055.69;4863882;29;20049;-71
2023/12/24 10:39:24;;;;;;;6.85;3.75;;;;;;;2.84;62.92;97075.25;4867455;29;20411;-73
2023/12/24 10:41:58;;;;;;;5.78;3.38;;;;;;;2.26;63.05;97003.72;4848422;29;20041;-71
2023/12/24 10:44:33;;;;;;;7.22;4.07;;;;;;;2.31;62.57;97031.84;4878122;29;20121;-72
2023/12/24 10:47:15;;;;;;;4.82;3.60;;;;;;;2.55;62.79;97080.13;4868380;29;20041;-72
2023/12/24 10:49:45;;;;;;;5.60;3.47;;;;;;;2.52;62.69;97084.50;4864584;29;20052;-69
2023/12/24 10:52:17;;;;;;;5.93;3.88;;;;;;;2.09;63.11;97025.44;4855519;29;20045;-72
2023/12/24 10:54:48;;;;;;;6.65;3.30;;;;;;;2.20;62.69;97057.72;4865231;29;20041;-72
2023/12/24 10:57:40;;;;;;;5.78;3.28;;;;;;;2.62;62.94;97113.41;4853681;29;20535;-73
2023/12/24 11:00:17;;;;;;;5.75;3.38;;;;;;;2.46;63.10;97100.84;4863046;29;20045;-71
2023/12/24 11:02:49;;;;;;;6.68;3.30;;;;;;;1.88;62.89;97018.13;4881547;29;20092;-73
2023/12/24 11:05:40;;;;;;;;;;;;;;;2.44;62.36;97115.44;4867263;29;20053;-73
2023/12/24 11:08:28;;;;;;;5.82;3.08;;;;;;;2.05;62.43;97059.72;4881897;29;20032;-73
2023/12/24 11:11:03;;;;;;;5.80;3.22;;;;;;;2.29;62.62;97101.19;4867990;29;20041;-72
2023/12/24 11:13:44;;;;;;;7.03;3.22;;;;;;;2.10;62.83;97068.16;4852869;29;20052;-70
2023/12/24 11:16:40;;;;;;;6.78;3.60;;;;;;;2.06;63.23;97042.59;4869475;29;20048;-75
2023/12/24 11:19:32;;;;;;;6.45;3.45;;;;;;;2.61;62.96;97129.69;4870945;29;20053;-73
2023/12/24 11:22:16;;;;;;;8.57;4.10;;;;;;;2.50;62.82;97132.47;4867631;29;20047;-74
2023/12/24 11:25:18;;;;;;;6.05;3.67;;;;;;;1.88;62.84;97021.53;4867145;29;20052;-74
2023/12/24 11:27:56;;;;;;;6.20;3.72;;;;;;;1.84;62.64;97011.38;4865537;29;20045;-73
2023/12/24 11:30:22;;;;;;;5.63;3.35;;;;;;;2.49;63.18;97111.06;4858807;29;20046;-75
2023/12/24 11:32:54;;;;;;;6.05;3.58;;;;;;;1.63;63.12;96957.06;4854235;29;20077;-74
2023/12/24 11:36:01;;;;;;;6.28;3.80;;;;;;;2.66;62.29;97141.53;4862168;29;20072;-73
2023/12/24 11:41:49;;;;;;;6.32;4.00;;;;;;;2.43;61.85;97116.31;4849104;29;20045;-73
2023/12/24 11:44:26;;;;;;;6.57;3.45;;;;;;;2.19;62.86;97079.13;4867471;29;20048;-74
2023/12/24 11:47:05;;;;;;;7.00;3.88;;;;;;;2.76;62.56;97177.34;4862421;29;20068;-75
2023/12/24 11:49:41;;;;;;;7.70;4.20;;;;;;;2.65;62.51;97162.13;4874956;29;20500;-74
2023/12/24 11:52:29;;;;;;;7.50;4.28;;;;;;;2.57;62.63;97144.28;4852844;29;20045;-72
2023/12/24 11:55:02;;;;;;;6.70;3.60;;;;;;;2.24;61.50;97082.47;4852136;29;20055;-74
2023/12/24 11:58:12;;;;;;;8.25;4.60;;;;;;;2.56;62.39;97119.47;4871098;29;20045;-74
2023/12/24 12:01:10;;;;;;;8.07;4.63;;;;;;;2.78;62.07;97168.72;4862954;29;20515;-70
2023/12/24 12:03:47;;;;;;;9.35;4.63;;;;;;;2.85;62.03;97185.72;4846398;29;20049;-73
2023/12/24 12:06:37;;;;;;;8.40;4.28;;;;;;;2.77;61.71;97172.16;4858179;29;20194;-70
2023/12/24 12:12:18;;;;;;;5.07;3.38;;;;;;;1.80;61.98;97031.09;4845675;29;20090;-72